Time;durP1;ratioP1;P1;durP2;ratioP2;P2;SDS_P1;SDS_P2;PMS_P1;PMS_P2;Temp;Humidity;BMP_temperature;BMP_pressure;BME280_temperature;BME280_humidity;BME280_pressure;Samples;Min_cycle;Max_cycle;Signal;HPM_P1;HPM_P2
2023/09/02 00:01:48;;;;;;;15.80;14.57;;;14.20;99.90;;;;;;5055523;28;20516;-72
2023/09/02 00:04:17;;;;;;;17.17;15.77;;;14.20;99.90;;;;;;5054894;28;20454;-72
2023/09/02 00:06:45;;;;;;;16.73;15.43;;;14.20;99.90;;;;;;5054892;28;20534;-72
2023/09/02 00:09:15;;;;;;;17.00;15.60;;;14.20;99.90;;;;;;5054925;28;20441;-72
2023/09/02 00:11:43;;;;;;;17.03;15.60;;;14.20;99.90;;;;;;5052405;28;20922;-72
2023/09/02 00:14:11;;;;;;;14.40;13.30;;;14.10;99.90;;;;;;5053358;28;20846;-72
2023/09/02 00:16:41;;;;;;;17.20;15.90;;;14.10;99.90;;;;;;5054623;28;20472;-72
2023/09/02 00:19:09;;;;;;;15.57;14.37;;;14.10;99.90;;;;;;5054591;28;20969;-72
2023/09/02 00:21:37;;;;;;;16.10;14.50;;;14.10;99.90;;;;;;5054386;28;20438;-72
2023/09/02 00:24:06;;;;;;;14.60;13.40;;;14.00;99.90;;;;;;5054418;28;20437;-72
2023/09/02 00:26:35;;;;;;;15.23;13.93;;;14.00;99.90;;;;;;5054643;28;20567;-72
2023/09/02 00:29:03;;;;;;;14.80;13.60;;;14.00;99.90;;;;;;5054956;28;20449;-72
2023/09/02 00:31:33;;;;;;;14.77;13.57;;;14.00;99.90;;;;;;5054703;28;20469;-72
2023/09/02 00:34:04;;;;;;;14.97;13.57;;;14.00;99.90;;;;;;5053094;28;20837;-72
2023/09/02 00:36:32;;;;;;;14.93;13.70;;;13.90;99.90;;;;;;5054312;28;20438;-72
2023/09/02 00:39:00;;;;;;;15.17;13.83;;;13.90;99.90;;;;;;5052953;28;20446;-72
2023/09/02 00:41:33;;;;;;;15.50;14.40;;;13.90;99.90;;;;;;5054224;28;20507;-72
2023/09/02 00:44:02;;;;;;;15.10;13.63;;;13.90;99.90;;;;;;5052724;28;20494;-72
2023/09/02 00:46:31;;;;;;;15.57;14.37;;;13.90;99.90;;;;;;5052837;28;20442;-72
2023/09/02 00:48:59;;;;;;;16.40;15.00;;;13.80;99.90;;;;;;5052738;28;20450;-72
2023/09/02 00:51:29;;;;;;;16.57;14.93;;;13.80;99.90;;;;;;5054029;28;20441;-72
2023/09/02 00:53:57;;;;;;;15.50;14.20;;;13.80;99.90;;;;;;5052763;28;20450;-72
2023/09/02 00:56:26;;;;;;;16.23;14.87;;;13.80;99.90;;;;;;5053928;28;20784;-72
2023/09/02 00:58:57;;;;;;;15.73;14.40;;;13.80;99.90;;;;;;5052629;28;20504;-72
2023/09/02 01:01:26;;;;;;;15.97;14.60;;;13.70;99.90;;;;;;5052483;28;20461;-72
2023/09/02 01:03:55;;;;;;;16.37;15.07;;;13.70;99.90;;;;;;5052439;28;20524;-72
2023/09/02 01:06:23;;;;;;;15.87;14.47;;;13.70;99.90;;;;;;5053987;28;20434;-72
2023/09/02 01:08:53;;;;;;;16.13;14.83;;;13.70;99.90;;;;;;5052390;28;20453;-72
2023/09/02 01:11:22;;;;;;;12.70;11.60;;;13.60;99.90;;;;;;5052392;28;20445;-72
2023/09/02 01:13:50;;;;;;;15.43;14.13;;;13.60;99.90;;;;;;5053612;28;20430;-72
2023/09/02 01:16:18;;;;;;;15.53;14.13;;;13.60;99.90;;;;;;5052283;28;20438;-72
2023/09/02 01:18:47;;;;;;;14.73;13.43;;;13.60;99.90;;;;;;5052271;28;20834;-72
2023/09/02 01:21:48;;;;;;;15.60;14.30;;;13.60;99.90;;;;;;5052252;28;20529;-72
2023/09/02 01:24:55;;;;;;;14.70;13.50;;;13.60;99.90;;;;;;5050508;28;20494;-72
2023/09/02 01:27:31;;;;;;;17.00;15.50;;;13.50;99.90;;;;;;5040418;28;20876;-72
2023/09/02 01:30:05;;;;;;;16.53;15.23;;;13.50;99.90;;;;;;5052112;28;20445;-72
2023/09/02 01:32:35;;;;;;;16.87;15.37;;;13.50;99.90;;;;;;5052951;28;20517;-72
2023/09/02 01:35:06;;;;;;;14.57;13.30;;;13.40;99.90;;;;;;5051939;28;20543;-72
2023/09/02 01:37:35;;;;;;;15.60;14.20;;;13.40;99.90;;;;;;5052014;28;20434;-72
2023/09/02 01:40:07;;;;;;;16.17;14.90;;;13.40;99.90;;;;;;5053787;28;20442;-72
2023/09/02 01:42:37;;;;;;;13.80;12.57;;;13.40;99.90;;;;;;5051912;28;20575;-72
2023/09/02 01:45:07;;;;;;;14.53;13.33;;;13.40;99.90;;;;;;5052916;28;20466;-72
2023/09/02 01:47:36;;;;;;;13.50;12.40;;;13.40;99.90;;;;;;5051865;28;20536;-72
2023/09/02 01:50:08;;;;;;;13.73;12.60;;;13.40;99.90;;;;;;5053154;28;21001;-72
2023/09/02 01:52:36;;;;;;;13.80;12.60;;;13.40;99.90;;;;;;5053491;28;20522;-72
2023/09/02 01:55:06;;;;;;;13.17;12.17;;;13.30;99.90;;;;;;5051783;28;20511;-72
2023/09/02 01:57:35;;;;;;;12.63;11.63;;;13.30;99.90;;;;;;5051819;28;20451;-72
2023/09/02 02:00:05;;;;;;;12.90;11.80;;;13.30;99.90;;;;;;5052113;28;20849;-72
2023/09/02 02:02:39;;;;;;;15.03;13.67;;;13.30;99.90;;;;;;5053098;28;20450;-72
2023/09/02 02:05:10;;;;;;;13.70;12.60;;;13.20;99.90;;;;;;5051662;28;20465;-72
2023/09/02 02:07:43;;;;;;;13.37;12.10;;;13.20;99.90;;;;;;5053091;28;20835;-72
2023/09/02 02:10:13;;;;;;;13.43;12.30;;;13.20;99.90;;;;;;5051810;28;20434;-72
2023/09/02 02:12:43;;;;;;;12.50;11.50;;;13.20;99.90;;;;;;5051719;28;20442;-72
2023/09/02 02:15:12;;;;;;;12.30;11.30;;;13.20;99.90;;;;;;5051626;28;20552;-72
2023/09/02 02:17:41;;;;;;;12.57;11.40;;;13.10;99.90;;;;;;5051556;28;20458;-72
2023/09/02 02:20:10;;;;;;;12.93;11.80;;;13.10;99.90;;;;;;5051599;28;20448;-72
2023/09/02 02:22:39;;;;;;;13.13;11.83;;;13.10;99.90;;;;;;5051484;28;20512;-72
2023/09/02 02:25:08;;;;;;;13.60;12.40;;;13.10;99.90;;;;;;5051494;28;20472;-72
2023/09/02 02:27:36;;;;;;;15.17;13.50;;;13.10;99.90;;;;;;5068195;28;20454;-72
2023/09/02 02:30:07;;;;;;;13.90;12.60;;;13.10;99.90;;;;;;5053391;28;20442;-72
2023/09/02 02:32:35;;;;;;;13.87;12.50;;;13.10;99.90;;;;;;5052907;28;20426;-72
2023/09/02 02:35:05;;;;;;;14.23;12.83;;;13.10;99.90;;;;;;5053454;28;20458;-72
2023/09/02 02:37:33;;;;;;;13.47;12.37;;;13.10;99.90;;;;;;5055321;28;20484;-72
2023/09/02 02:40:05;;;;;;;12.10;11.10;;;13.10;99.90;;;;;;5055469;28;20989;-72
2023/09/02 02:42:33;;;;;;;12.93;11.83;;;13.10;99.90;;;;;;5055113;28;20453;-72
2023/09/02 02:45:01;;;;;;;13.37;12.17;;;13.00;99.90;;;;;;5055042;28;21056;-72
2023/09/02 02:47:30;;;;;;;13.40;12.10;;;13.00;99.90;;;;;;5056973;28;20483;-72
2023/09/02 02:49:59;;;;;;;14.50;13.30;;;13.00;99.90;;;;;;5056635;28;20532;-72
2023/09/02 02:52:27;;;;;;;13.30;12.20;;;13.00;99.90;;;;;;5054998;28;20530;-72
2023/09/02 02:54:56;;;;;;;12.57;11.37;;;13.00;99.90;;;;;;5056514;28;20507;-72
2023/09/02 02:57:24;;;;;;;13.40;12.40;;;13.00;99.90;;;;;;5054893;28;20448;-72
2023/09/02 02:59:52;;;;;;;13.97;12.77;;;13.00;99.90;;;;;;5054802;28;20511;-72
2023/09/02 03:02:20;;;;;;;13.53;12.43;;;13.00;99.90;;;;;;5054819;28;20445;-72
2023/09/02 03:04:50;;;;;;;15.13;13.77;;;13.00;99.90;;;;;;5054586;28;21026;-72
2023/09/02 03:07:19;;;;;;;13.43;12.33;;;12.90;99.90;;;;;;5054722;28;20473;-72
2023/09/02 03:09:47;;;;;;;13.43;12.33;;;12.90;99.90;;;;;;5054582;28;20457;-72
2023/09/02 03:12:15;;;;;;;14.47;13.37;;;12.90;99.90;;;;;;5056138;28;20438;-72
2023/09/02 03:14:46;;;;;;;14.30;13.10;;;12.90;99.90;;;;;;5054930;28;20595;-71
2023/09/02 03:17:20;;;;;;;13.83;12.63;;;12.90;99.90;;;;;;5055249;28;20430;-72
2023/09/02 03:19:51;;;;;;;14.13;12.93;;;12.80;99.90;;;;;;5055132;28;20441;-72
2023/09/02 03:22:19;;;;;;;14.00;12.90;;;12.80;99.90;;;;;;5055018;28;20438;-71
2023/09/02 03:24:52;;;;;;;12.83;11.80;;;12.80;99.90;;;;;;5054301;28;20513;-71
2023/09/02 03:27:21;;;;;;;15.27;13.97;;;12.80;99.90;;;;;;5054786;28;20454;-72
2023/09/02 03:29:49;;;;;;;13.67;12.47;;;12.80;99.90;;;;;;5054299;28;20458;-72
2023/09/02 03:32:19;;;;;;;13.70;12.50;;;12.70;99.90;;;;;;5071677;28;20821;-72
2023/09/02 03:34:47;;;;;;;13.60;12.37;;;12.70;99.90;;;;;;5054146;28;20478;-72
2023/09/02 03:37:17;;;;;;;13.37;12.17;;;12.70;99.90;;;;;;5055420;28;20438;-72
2023/09/02 03:39:45;;;;;;;12.37;11.33;;;12.70;99.90;;;;;;5054118;28;20442;-72
2023/09/02 03:42:13;;;;;;;13.30;12.20;;;12.70;99.90;;;;;;5053993;28;20454;-72
2023/09/02 03:44:41;;;;;;;14.67;13.33;;;12.70;99.90;;;;;;5055192;28;20816;-72
2023/09/02 03:47:09;;;;;;;12.70;11.60;;;12.70;99.90;;;;;;5055134;28;20438;-72
2023/09/02 03:49:39;;;;;;;12.60;11.47;;;12.70;99.90;;;;;;5070924;28;20486;-72
2023/09/02 03:52:08;;;;;;;12.77;11.57;;;12.60;99.90;;;;;;5053830;28;20631;-72
2023/09/02 03:54:39;;;;;;;12.37;11.37;;;12.60;99.90;;;;;;5053887;28;20469;-72
2023/09/02 03:57:07;;;;;;;11.60;10.63;;;12.60;99.90;;;;;;5053898;28;20521;-72
2023/09/02 03:59:35;;;;;;;12.23;11.23;;;12.60;99.90;;;;;;5053834;28;20504;-72
2023/09/02 04:02:04;;;;;;;12.93;11.93;;;12.60;99.90;;;;;;5054945;28;20434;-72
2023/09/02 04:04:33;;;;;;;13.53;12.37;;;12.50;99.90;;;;;;5053515;28;20485;-72
2023/09/02 04:07:01;;;;;;;11.77;10.80;;;12.60;99.90;;;;;;5053597;28;20442;-72
2023/09/02 04:09:29;;;;;;;14.43;13.03;;;12.50;99.90;;;;;;5054795;28;20492;-72
2023/09/02 04:12:00;;;;;;;13.10;12.00;;;12.50;99.90;;;;;;5053552;28;20540;-72
2023/09/02 04:14:28;;;;;;;13.23;12.13;;;12.50;99.90;;;;;;5054252;28;20472;-72
2023/09/02 04:16:59;;;;;;;13.00;11.90;;;12.50;99.90;;;;;;5053416;28;21006;-72
2023/09/02 04:19:27;;;;;;;12.33;11.33;;;12.50;99.90;;;;;;5053705;28;20446;-72
2023/09/02 04:21:56;;;;;;;12.33;11.10;;;12.50;99.90;;;;;;5053372;28;20480;-72
2023/09/02 04:24:24;;;;;;;11.87;10.77;;;12.50;99.90;;;;;;5054397;28;20523;-72
2023/09/02 04:26:52;;;;;;;12.50;11.50;;;12.50;99.90;;;;;;5053237;28;20450;-72
2023/09/02 04:29:22;;;;;;;10.93;10.03;;;12.50;99.90;;;;;;5053175;28;20532;-72
2023/09/02 04:31:52;;;;;;;12.97;11.87;;;12.40;99.90;;;;;;5053423;28;20454;-72
2023/09/02 04:34:24;;;;;;;13.33;12.23;;;12.40;99.90;;;;;;5053091;28;20549;-72
2023/09/02 04:36:53;;;;;;;13.20;12.20;;;12.40;99.90;;;;;;5053004;28;20446;-72
2023/09/02 04:39:21;;;;;;;12.60;11.47;;;12.40;99.90;;;;;;5052896;28;20454;-72
2023/09/02 04:41:49;;;;;;;24.53;22.07;;;12.40;99.90;;;;;;5052872;28;20450;-71
2023/09/02 04:44:18;;;;;;;16.10;14.50;;;12.40;99.90;;;;;;5053656;28;20564;-71
2023/09/02 04:46:47;;;;;;;16.23;14.63;;;12.40;99.90;;;;;;5052876;28;20842;-72
2023/09/02 04:49:16;;;;;;;17.53;16.00;;;12.30;99.90;;;;;;5052758;28;20457;-72
2023/09/02 04:51:44;;;;;;;15.60;14.20;;;12.40;99.90;;;;;;5052613;28;20942;-72
2023/09/02 04:54:14;;;;;;;16.10;14.60;;;12.30;99.90;;;;;;5054051;28;20450;-71
2023/09/02 04:56:42;;;;;;;15.07;13.77;;;12.30;99.90;;;;;;5052687;28;20438;-72
2023/09/02 04:59:10;;;;;;;15.40;14.00;;;12.30;99.90;;;;;;5051868;28;20887;-72
2023/09/02 05:01:38;;;;;;;15.80;14.50;;;12.30;99.90;;;;;;5052553;28;20465;-71
2023/09/02 05:04:08;;;;;;;14.20;13.00;;;12.30;99.90;;;;;;5052511;28;20450;-71
2023/09/02 05:06:37;;;;;;;13.53;12.43;;;12.30;99.90;;;;;;5053829;28;20438;-72
2023/09/02 05:09:06;;;;;;;13.97;12.73;;;12.30;99.90;;;;;;5053361;28;20446;-71
2023/09/02 05:11:34;;;;;;;14.23;13.13;;;12.30;99.90;;;;;;5052483;28;20477;-71
2023/09/02 05:14:03;;;;;;;13.23;12.20;;;12.30;99.90;;;;;;5052280;28;20450;-72
2023/09/02 05:16:33;;;;;;;13.00;11.63;;;12.30;99.90;;;;;;5052286;28;20473;-72
2023/09/02 05:19:01;;;;;;;13.17;11.97;;;12.30;99.90;;;;;;5053548;28;20442;-71
2023/09/02 05:21:31;;;;;;;13.67;12.60;;;12.40;99.90;;;;;;5052372;28;20479;-71
2023/09/02 05:23:59;;;;;;;14.00;12.90;;;12.30;99.90;;;;;;5053436;28;20434;-72
2023/09/02 05:26:28;;;;;;;15.20;13.90;;;12.40;99.90;;;;;;5053414;28;20842;-71
2023/09/02 05:28:56;;;;;;;12.77;11.77;;;12.40;99.90;;;;;;5052084;28;20481;-72
2023/09/02 05:31:25;;;;;;;12.87;11.80;;;12.40;99.90;;;;;;5052094;28;20461;-71
2023/09/02 05:33:53;;;;;;;14.40;13.20;;;12.40;99.90;;;;;;5053318;28;20775;-72
2023/09/02 05:36:21;;;;;;;14.57;13.40;;;12.50;99.90;;;;;;5053677;28;20477;-72
2023/09/02 05:38:51;;;;;;;14.47;13.30;;;12.50;99.90;;;;;;5053280;28;20464;-72
2023/09/02 05:41:19;;;;;;;14.50;13.10;;;12.50;99.90;;;;;;5053250;28;20474;-73
2023/09/02 05:43:47;;;;;;;14.10;12.77;;;12.50;99.90;;;;;;5053292;28;20442;-72
2023/09/02 05:46:15;;;;;;;14.80;13.50;;;12.60;99.90;;;;;;5053209;28;20497;-71
2023/09/02 05:48:43;;;;;;;14.70;13.40;;;12.60;99.90;;;;;;5052009;28;20446;-73
2023/09/02 05:51:11;;;;;;;13.03;11.83;;;12.60;99.90;;;;;;5053415;28;20521;-73
2023/09/02 05:53:39;;;;;;;14.23;12.83;;;12.60;99.90;;;;;;5053722;28;20860;-72
2023/09/02 05:56:09;;;;;;;14.87;13.67;;;12.60;99.90;;;;;;5053423;28;20461;-70
2023/09/02 05:58:37;;;;;;;16.07;14.73;;;12.70;99.90;;;;;;5052007;28;20545;-73
2023/09/02 06:01:06;;;;;;;14.93;13.50;;;12.70;99.90;;;;;;5052072;28;20512;-71
2023/09/02 06:03:34;;;;;;;16.23;14.97;;;12.80;99.90;;;;;;5053090;28;20438;-72
2023/09/02 06:06:08;;;;;;;15.53;14.23;;;12.80;99.90;;;;;;5051707;28;20843;-72
2023/09/02 06:08:37;;;;;;;16.90;15.30;;;12.90;99.90;;;;;;5053615;28;20440;-72
2023/09/02 06:11:06;;;;;;;17.37;15.93;;;12.90;99.90;;;;;;5055732;28;20538;-72
2023/09/02 06:13:36;;;;;;;16.90;15.50;;;13.00;99.90;;;;;;5056948;28;20991;-72
2023/09/02 06:16:06;;;;;;;20.03;18.23;;;13.00;99.90;;;;;;5055630;28;20465;-72
2023/09/02 06:18:36;;;;;;;17.43;15.93;;;13.10;99.90;;;;;;5055763;28;20446;-72
2023/09/02 06:21:09;;;;;;;20.77;19.07;;;13.10;99.90;;;;;;5055617;28;20870;-72
2023/09/02 06:23:37;;;;;;;22.50;20.50;;;13.20;99.90;;;;;;5056909;28;20455;-72
2023/09/02 06:26:05;;;;;;;23.57;21.37;;;13.20;99.90;;;;;;5055363;28;20512;-72
2023/09/02 06:28:39;;;;;;;23.43;21.33;;;13.30;99.90;;;;;;5055549;28;20434;-72
2023/09/02 06:31:08;;;;;;;22.40;20.50;;;13.40;99.90;;;;;;5056784;28;20429;-72
2023/09/02 06:33:37;;;;;;;23.90;21.80;;;13.50;99.90;;;;;;5055368;28;20826;-72
2023/09/02 06:36:10;;;;;;;25.93;23.57;;;13.50;99.90;;;;;;5056682;28;20997;-73
2023/09/02 06:38:39;;;;;;;30.60;27.60;;;13.60;99.90;;;;;;5057567;28;20512;-72
2023/09/02 06:41:11;;;;;;;28.97;26.30;;;13.60;99.90;;;;;;5055444;28;20460;-72
2023/09/02 06:43:41;;;;;;;30.83;27.90;;;13.70;99.90;;;;;;5056655;28;20545;-72
2023/09/02 06:46:11;;;;;;;30.10;27.20;;;13.80;99.90;;;;;;5056727;28;20473;-74
2023/09/02 06:48:40;;;;;;;34.20;30.73;;;13.90;99.90;;;;;;5056857;28;20425;-75
2023/09/02 06:51:08;;;;;;;31.97;28.87;;;13.90;99.90;;;;;;5055286;28;20450;-74
2023/09/02 06:53:36;;;;;;;30.83;27.87;;;14.00;99.90;;;;;;5056964;28;20495;-75
2023/09/02 06:56:07;;;;;;;33.03;29.57;;;14.10;99.90;;;;;;5056356;28;20461;-74
2023/09/02 06:58:36;;;;;;;31.10;27.80;;;14.20;99.90;;;;;;5056218;28;20460;-72
2023/09/02 07:01:06;;;;;;;24.07;21.67;;;14.20;99.90;;;;;;5056445;28;20444;-72
2023/09/02 07:03:34;;;;;;;29.77;26.60;;;14.30;99.90;;;;;;5056583;28;20484;-72
2023/09/02 07:06:06;;;;;;;32.80;28.30;;;14.40;99.90;;;;;;5056532;28;20470;-72
2023/09/02 07:08:35;;;;;;;31.80;28.40;;;14.50;99.90;;;;;;5056630;28;20422;-72
2023/09/02 07:11:03;;;;;;;31.47;28.00;;;14.50;99.90;;;;;;5056475;28;20453;-72
2023/09/02 07:13:31;;;;;;;32.53;28.03;;;14.60;99.90;;;;;;5056133;28;20437;-72
2023/09/02 07:16:00;;;;;;;33.43;28.33;;;14.70;99.90;;;;;;5054719;28;20503;-72
2023/09/02 07:18:30;;;;;;;31.40;28.07;;;14.80;99.90;;;;;;5055864;28;20441;-72
2023/09/02 07:20:59;;;;;;;27.70;24.80;;;14.90;99.90;;;;;;5055381;28;20478;-71
2023/09/02 07:23:29;;;;;;;27.13;24.40;;;15.00;99.90;;;;;;5055867;28;20441;-71
2023/09/02 07:25:59;;;;;;;28.90;25.80;;;15.10;99.90;;;;;;5054447;28;20472;-71
2023/09/02 07:28:28;;;;;;;27.10;24.30;;;15.20;99.90;;;;;;5055516;28;20521;-72
2023/09/02 07:30:58;;;;;;;24.27;21.77;;;15.30;99.90;;;;;;5055901;28;20442;-72
2023/09/02 07:33:27;;;;;;;23.80;21.40;;;15.40;99.90;;;;;;5056253;28;20834;-72
2023/09/02 07:35:57;;;;;;;21.03;19.13;;;15.50;99.90;;;;;;5055637;28;20450;-73
2023/09/02 07:38:26;;;;;;;19.50;17.70;;;15.70;99.90;;;;;;5055834;28;20418;-72
2023/09/02 07:40:54;;;;;;;20.07;17.83;;;15.80;99.90;;;;;;5055838;28;20440;-73
2023/09/02 07:43:22;;;;;;;16.30;14.63;;;15.90;99.90;;;;;;5055972;28;20503;-72
2023/09/02 07:45:50;;;;;;;15.63;14.03;;;16.00;99.90;;;;;;5055231;28;20492;-73
2023/09/02 07:48:19;;;;;;;15.23;13.83;;;16.20;99.90;;;;;;5055458;28;20437;-73
2023/09/02 07:50:47;;;;;;;12.50;11.23;;;16.30;99.90;;;;;;5055489;28;20438;-73
2023/09/02 07:53:16;;;;;;;13.27;12.07;;;16.40;99.90;;;;;;5055360;28;20948;-73
2023/09/02 07:55:45;;;;;;;12.77;11.47;;;16.50;99.90;;;;;;5055063;28;21044;-74
2023/09/02 07:58:13;;;;;;;13.93;12.63;;;16.70;99.90;;;;;;5053907;28;20533;-73
2023/09/02 08:00:42;;;;;;;13.43;12.00;;;16.80;99.90;;;;;;5055151;28;20504;-73
2023/09/02 08:03:10;;;;;;;12.87;11.50;;;16.90;99.90;;;;;;5055500;28;20869;-73
2023/09/02 08:05:40;;;;;;;12.60;11.50;;;17.10;99.90;;;;;;5054973;28;20436;-73
2023/09/02 08:08:08;;;;;;;14.37;12.80;;;17.20;99.90;;;;;;5055526;28;20507;-73
2023/09/02 08:10:38;;;;;;;14.53;12.37;;;17.30;99.90;;;;;;5053923;28;20860;-73
2023/09/02 08:13:07;;;;;;;11.70;10.60;;;17.40;99.90;;;;;;5055487;28;20393;-74
2023/09/02 08:15:38;;;;;;;14.33;10.87;;;17.50;99.90;;;;;;5055398;28;20439;-74
2023/09/02 08:18:06;;;;;;;11.07;10.07;;;17.60;99.90;;;;;;5053884;28;20413;-74
2023/09/02 08:20:35;;;;;;;13.13;12.00;;;17.70;99.90;;;;;;5053988;28;20465;-72
2023/09/02 08:23:04;;;;;;;9.97;8.83;;;17.80;99.90;;;;;;5054684;28;20500;-72
2023/09/02 08:25:32;;;;;;;11.70;10.60;;;17.80;99.90;;;;;;5053512;28;20447;-73
2023/09/02 08:28:02;;;;;;;11.10;9.50;;;17.90;99.90;;;;;;5054538;28;20536;-73
2023/09/02 08:30:30;;;;;;;10.00;8.93;;;17.90;99.90;;;;;;5053563;28;20446;-72
2023/09/02 08:32:58;;;;;;;10.33;9.10;;;17.90;99.90;;;;;;5054102;28;20570;-73
2023/09/02 08:35:26;;;;;;;10.47;9.57;;;17.90;99.90;;;;;;5053876;28;20465;-72
2023/09/02 08:37:54;;;;;;;8.60;7.80;;;17.90;99.90;;;;;;5054652;28;20546;-74
2023/09/02 08:40:23;;;;;;;10.50;9.50;;;17.90;99.90;;;;;;5053351;28;20442;-73
2023/09/02 08:42:51;;;;;;;10.00;9.00;;;17.90;99.90;;;;;;5053208;28;20465;-73
2023/09/02 08:45:23;;;;;;;11.97;10.47;;;18.00;99.90;;;;;;5054233;28;20443;-73
2023/09/02 08:47:56;;;;;;;13.33;12.03;;;18.10;99.90;;;;;;5054439;28;20815;-73
2023/09/02 08:50:27;;;;;;;13.70;12.40;;;18.10;99.90;;;;;;5054878;28;20463;-73
2023/09/02 08:52:56;;;;;;;13.13;11.30;;;18.20;99.90;;;;;;5054567;28;20426;-73
2023/09/02 08:55:25;;;;;;;11.67;10.67;;;18.30;99.90;;;;;;5052736;28;20475;-73
2023/09/02 08:57:54;;;;;;;13.40;11.90;;;18.30;99.90;;;;;;5054005;28;20923;-73
2023/09/02 09:00:24;;;;;;;12.37;11.23;;;18.40;99.90;;;;;;5054378;28;20441;-73
2023/09/02 09:02:53;;;;;;;12.10;10.90;;;18.40;99.90;;;;;;5054316;28;20960;-73
2023/09/02 09:05:22;;;;;;;12.77;11.40;;;18.50;99.90;;;;;;5054271;28;20966;-74
2023/09/02 09:07:51;;;;;;;11.43;10.37;;;18.50;99.90;;;;;;5053989;28;20462;-73
2023/09/02 09:10:21;;;;;;;15.30;12.67;;;18.50;99.90;;;;;;5054377;28;20419;-72
2023/09/02 09:12:52;;;;;;;15.80;12.93;;;18.60;99.90;;;;;;5053402;28;20529;-74
2023/09/02 09:15:23;;;;;;;14.33;12.80;;;18.60;99.90;;;;;;5054770;28;20458;-74
2023/09/02 09:17:52;;;;;;;12.67;11.47;;;18.70;99.90;;;;;;5053862;28;20445;-74
2023/09/02 09:20:20;;;;;;;13.67;12.47;;;18.70;99.90;;;;;;5055010;28;20465;-74
2023/09/02 09:22:50;;;;;;;15.03;13.53;;;18.80;99.90;;;;;;5054512;28;20443;-74
2023/09/02 09:25:19;;;;;;;11.83;10.73;;;18.80;99.90;;;;;;5054484;28;20457;-74
2023/09/02 09:27:48;;;;;;;13.07;11.77;;;18.90;99.90;;;;;;5054498;28;20462;-73
2023/09/02 09:30:28;;;;;;;12.70;11.17;;;19.00;99.90;;;;;;5054653;28;20462;-74
2023/09/02 09:33:01;;;;;;;11.20;10.10;;;19.00;99.90;;;;;;5054657;28;20422;-74
2023/09/02 09:35:30;;;;;;;10.37;9.37;;;19.10;99.90;;;;;;5054828;28;20557;-74
2023/09/02 09:37:58;;;;;;;13.80;11.90;;;19.20;99.90;;;;;;5053298;28;20469;-73
2023/09/02 09:40:31;;;;;;;13.13;11.73;;;19.30;99.90;;;;;;5053305;28;20456;-74
2023/09/02 09:43:00;;;;;;;13.70;12.30;;;19.40;99.90;;;;;;5054316;28;20555;-73
2023/09/02 09:45:30;;;;;;;13.00;11.70;;;19.40;99.90;;;;;;5052874;28;20470;-73
2023/09/02 09:47:59;;;;;;;12.77;11.00;;;19.50;99.90;;;;;;5054970;28;20454;-73
2023/09/02 09:50:29;;;;;;;14.40;11.60;;;19.50;99.90;;;;;;5054322;28;20528;-74
2023/09/02 09:53:02;;;;;;;11.90;10.70;;;19.60;99.90;;;;;;5054319;28;20934;-74
2023/09/02 09:55:31;;;;;;;13.10;11.60;;;19.70;99.90;;;;;;5054232;28;20454;-74
2023/09/02 09:58:00;;;;;;;12.53;11.33;;;19.60;99.90;;;;;;5053175;28;20438;-74
2023/09/02 10:00:31;;;;;;;14.50;13.00;;;19.60;99.90;;;;;;5054324;28;20930;-74
2023/09/02 10:03:00;;;;;;;13.17;11.37;;;19.70;99.90;;;;;;5054769;28;20472;-74
2023/09/02 10:05:29;;;;;;;13.97;12.57;;;19.60;99.90;;;;;;5054987;28;20508;-73
2023/09/02 10:07:59;;;;;;;13.43;11.40;;;19.60;99.90;;;;;;5053617;28;20470;-74
2023/09/02 10:10:29;;;;;;;12.20;11.10;;;19.60;99.90;;;;;;5054349;28;20529;-74
2023/09/02 10:12:58;;;;;;;11.37;10.37;;;19.70;99.90;;;;;;5054669;28;20437;-74
2023/09/02 10:15:27;;;;;;;12.30;11.00;;;19.70;99.90;;;;;;5054463;28;20485;-74
2023/09/02 10:17:58;;;;;;;12.33;11.10;;;19.70;99.90;;;;;;5052869;28;20485;-74
2023/09/02 10:20:29;;;;;;;11.43;10.33;;;19.80;99.90;;;;;;5053091;28;20556;-74
2023/09/02 10:23:04;;;;;;;10.83;9.80;;;19.80;99.90;;;;;;5052781;28;20423;-74
2023/09/02 10:25:41;;;;;;;12.37;11.07;;;19.80;99.90;;;;;;5054834;28;20461;-76
2023/09/02 10:28:15;;;;;;;12.17;10.93;;;19.80;99.90;;;;;;5054396;28;20549;-75
2023/09/02 10:30:48;;;;;;;11.80;10.30;;;19.90;99.90;;;;;;5051986;28;20449;-75
2023/09/02 10:33:25;;;;;;;13.17;11.83;;;19.90;99.90;;;;;;5052884;28;20423;-75
2023/09/02 10:35:59;;;;;;;13.53;10.70;;;19.90;99.90;;;;;;5052841;28;20449;-76
2023/09/02 10:38:31;;;;;;;13.20;10.90;;;19.90;99.90;;;;;;5051517;28;20930;-75
2023/09/02 10:41:08;;;;;;;13.30;11.90;;;20.00;99.90;;;;;;5051542;28;20441;-77
2023/09/02 10:43:37;;;;;;;11.43;10.33;;;20.10;99.90;;;;;;5052756;28;20939;-75
2023/09/02 10:46:08;;;;;;;13.03;11.73;;;20.20;99.90;;;;;;5051228;28;20468;-75
2023/09/02 10:48:40;;;;;;;11.87;10.87;;;20.30;99.90;;;;;;5052523;28;20942;-75
2023/09/02 10:51:09;;;;;;;14.30;11.27;;;20.40;99.90;;;;;;5053401;28;20480;-76
2023/09/02 10:54:02;;;;;;;10.53;9.43;;;20.40;99.90;;;;;;5052799;28;20454;-76
2023/09/02 10:56:32;;;;;;;12.67;11.57;;;20.40;99.90;;;;;;5054333;28;20465;-76
2023/09/02 10:59:02;;;;;;;12.10;10.73;;;20.40;99.90;;;;;;5056469;28;20430;-76
2023/09/02 11:01:44;;;;;;;13.73;12.00;;;20.40;99.90;;;;;;5056547;28;20480;-76
2023/09/02 11:04:16;;;;;;;12.90;11.70;;;20.40;99.90;;;;;;5055282;28;20452;-76
2023/09/02 11:07:24;;;;;;;12.43;11.30;;;20.40;99.90;;;;;;5056494;28;20840;-76
2023/09/02 11:09:53;;;;;;;12.10;10.80;;;20.40;99.90;;;;;;5056569;28;20434;-76
2023/09/02 11:12:22;;;;;;;12.33;11.07;;;20.30;99.90;;;;;;5054836;28;20524;-76
2023/09/02 11:15:15;;;;;;;12.73;11.37;;;20.30;99.90;;;;;;5054708;28;20543;-76
2023/09/02 11:17:44;;;;;;;11.87;10.87;;;20.30;99.90;;;;;;5056392;28;20419;-76
2023/09/02 11:20:15;;;;;;;13.47;12.00;;;20.20;99.90;;;;;;5054524;28;20810;-76
2023/09/02 11:22:51;;;;;;;13.47;12.10;;;20.30;99.90;;;;;;5055887;28;20440;-76
2023/09/02 11:25:31;;;;;;;11.17;10.07;;;20.20;99.90;;;;;;5054416;28;21044;-76
2023/09/02 11:28:01;;;;;;;12.40;11.30;;;20.20;99.90;;;;;;5055610;28;20458;-76
2023/09/02 11:30:31;;;;;;;13.43;12.00;;;20.20;99.90;;;;;;5056150;28;20434;-76
2023/09/02 11:33:00;;;;;;;11.93;10.70;;;20.20;99.90;;;;;;5054553;28;20538;-77
2023/09/02 11:35:32;;;;;;;12.40;11.30;;;20.20;99.90;;;;;;5055514;28;20880;-74
2023/09/02 11:38:01;;;;;;;13.57;12.20;;;20.20;99.90;;;;;;5055708;28;20434;-74
2023/09/02 11:40:30;;;;;;;12.03;10.80;;;20.20;99.90;;;;;;5054366;28;20879;-74
2023/09/02 11:43:00;;;;;;;10.73;9.77;;;20.30;99.90;;;;;;5055400;28;20490;-74
2023/09/02 11:45:30;;;;;;;10.23;8.43;;;20.30;99.90;;;;;;5055205;28;20477;-74
2023/09/02 11:47:58;;;;;;;11.13;9.70;;;20.30;99.90;;;;;;5054188;28;20815;-73
2023/09/02 11:50:27;;;;;;;8.83;8.10;;;20.30;99.90;;;;;;5055471;28;20434;-73
2023/09/02 11:52:57;;;;;;;8.00;7.30;;;20.30;99.90;;;;;;5055180;28;20441;-74
2023/09/02 11:55:26;;;;;;;8.30;7.60;;;20.30;99.90;;;;;;5055122;28;20485;-74
2023/09/02 11:57:54;;;;;;;7.00;6.30;;;20.30;99.90;;;;;;5055121;28;20438;-74
2023/09/02 12:00:24;;;;;;;8.23;7.43;;;20.30;99.90;;;;;;5053754;28;20541;-74
2023/09/02 12:02:56;;;;;;;7.87;7.27;;;20.30;99.90;;;;;;5053702;28;20446;-74
2023/09/02 12:05:25;;;;;;;7.40;6.30;;;20.30;99.90;;;;;;5054975;28;20492;-74
2023/09/02 12:07:56;;;;;;;6.83;5.70;;;20.30;99.90;;;;;;5053451;28;20429;-74
2023/09/02 12:10:26;;;;;;;7.67;6.90;;;20.30;99.90;;;;;;5054808;28;20519;-74
2023/09/02 12:12:55;;;;;;;6.80;6.20;;;20.30;99.90;;;;;;5054957;28;20423;-74
2023/09/02 12:15:23;;;;;;;6.60;5.90;;;20.30;99.90;;;;;;5054770;28;20817;-74
2023/09/02 12:17:51;;;;;;;6.80;6.20;;;20.30;99.90;;;;;;5053448;28;20453;-74
2023/09/02 12:20:20;;;;;;;8.40;7.53;;;20.30;99.90;;;;;;5054954;28;20492;-74
2023/09/02 12:22:48;;;;;;;7.97;7.17;;;20.30;99.90;;;;;;5054641;28;20841;-74
2023/09/02 12:25:20;;;;;;;8.53;7.50;;;20.40;99.90;;;;;;5053209;28;20569;-74
2023/09/02 12:27:48;;;;;;;7.23;6.63;;;20.30;99.90;;;;;;5053250;28;20492;-74
2023/09/02 12:30:26;;;;;;;8.23;5.90;;;20.30;99.90;;;;;;5054443;28;20470;-73
2023/09/02 12:32:58;;;;;;;6.50;5.60;;;20.40;99.90;;;;;;5054504;28;20418;-74
2023/09/02 12:35:26;;;;;;;9.07;7.00;;;20.40;99.90;;;;;;5054905;28;20536;-74
2023/09/02 12:38:02;;;;;;;7.10;6.40;;;20.40;99.90;;;;;;5053237;28;20450;-75
2023/09/02 12:40:32;;;;;;;7.20;6.60;;;20.40;99.90;;;;;;5054374;28;20441;-75
2023/09/02 12:43:01;;;;;;;7.60;6.90;;;20.40;99.90;;;;;;5054457;28;20448;-75